sensor_id;sensor_type;location;lat;lon;timestamp;pressure;altitude;pressure_sealevel;temperature;humidity
8575;BME280;4325;42.520;27.448;2023-04-05T00:00:25;100347.88;;;6.43;100.00
8575;BME280;4325;42.520;27.448;2023-04-05T00:02:52;100361.72;;;6.41;100.00
8575;BME280;4325;42.520;27.448;2023-04-05T00:05:19;100356.78;;;6.38;100.00
8575;BME280;4325;42.520;27.448;2023-04-05T00:07:54;100360.34;;;6.39;100.00
8575;BME280;4325;42.520;27.448;2023-04-05T00:10:22;100364.38;;;6.36;100.00
8575;BME280;4325;42.520;27.448;2023-04-05T00:12:49;100369.00;;;6.36;100.00
8575;BME280;4325;42.520;27.448;2023-04-05T00:15:16;100353.50;;;6.36;100.00
8575;BME280;4325;42.520;27.448;2023-04-05T00:17:43;100363.88;;;6.39;100.00
8575;BME280;4325;42.520;27.448;2023-04-05T00:20:12;100362.81;;;6.40;100.00
8575;BME280;4325;42.520;27.448;2023-04-05T00:22:40;100368.84;;;6.42;100.00
8575;BME280;4325;42.520;27.448;2023-04-05T00:25:09;100360.06;;;6.40;100.00
8575;BME280;4325;42.520;27.448;2023-04-05T00:27:37;100360.06;;;6.40;100.00
8575;BME280;4325;42.520;27.448;2023-04-05T00:30:05;100373.13;;;6.38;100.00
8575;BME280;4325;42.520;27.448;2023-04-05T00:32:32;100366.53;;;6.34;100.00
8575;BME280;4325;42.520;27.448;2023-04-05T00:34:59;100368.75;;;6.37;100.00
8575;BME280;4325;42.520;27.448;2023-04-05T00:37:26;100371.97;;;6.34;100.00
8575;BME280;4325;42.520;27.448;2023-04-05T00:39:52;100372.47;;;6.31;100.00
8575;BME280;4325;42.520;27.448;2023-04-05T00:42:21;100369.50;;;6.33;100.00
8575;BME280;4325;42.520;27.448;2023-04-05T00:44:50;100375.75;;;6.33;100.00
8575;BME280;4325;42.520;27.448;2023-04-05T00:47:16;100376.28;;;6.30;100.00
8575;BME280;4325;42.520;27.448;2023-04-05T00:49:44;100366.41;;;6.24;100.00
8575;BME280;4325;42.520;27.448;2023-04-05T00:52:11;100363.63;;;6.19;100.00
8575;BME280;4325;42.520;27.448;2023-04-05T00:54:39;100374.06;;;6.27;100.00
8575;BME280;4325;42.520;27.448;2023-04-05T00:57:08;100379.25;;;6.29;100.00
8575;BME280;4325;42.520;27.448;2023-04-05T00:59:35;100375.63;;;6.23;100.00
8575;BME280;4325;42.520;27.448;2023-04-05T01:02:09;100376.72;;;6.22;100.00
8575;BME280;4325;42.520;27.448;2023-04-05T01:04:40;100380.56;;;6.26;100.00
8575;BME280;4325;42.520;27.448;2023-04-05T01:07:21;100378.59;;;6.22;100.00
8575;BME280;4325;42.520;27.448;2023-04-05T01:09:54;100381.66;;;6.25;100.00
8575;BME280;4325;42.520;27.448;2023-04-05T01:12:22;100384.13;;;6.27;100.00
8575;BME280;4325;42.520;27.448;2023-04-05T01:14:51;100380.56;;;6.26;100.00
8575;BME280;4325;42.520;27.448;2023-04-05T01:17:21;100381.06;;;6.23;100.00
8575;BME280;4325;42.520;27.448;2023-04-05T01:19:49;100385.69;;;6.23;100.00
8575;BME280;4325;42.520;27.448;2023-04-05T01:22:53;100393.94;;;6.28;100.00
8575;BME280;4325;42.520;27.448;2023-04-05T01:25:48;100388.16;;;6.24;100.00
8575;BME280;4325;42.520;27.448;2023-04-05T01:31:30;100396.88;;;6.26;100.00
8575;BME280;4325;42.520;27.448;2023-04-05T01:34:03;100391.38;;;6.21;100.00
8575;BME280;4325;42.520;27.448;2023-04-05T01:36:36;100400.03;;;6.18;100.00
8575;BME280;4325;42.520;27.448;2023-04-05T01:39:07;100387.78;;;6.16;100.00
8575;BME280;4325;42.520;27.448;2023-04-05T01:41:37;100394.09;;;6.21;100.00
8575;BME280;4325;42.520;27.448;2023-04-05T01:44:04;100388.59;;;6.16;100.00
8575;BME280;4325;42.520;27.448;2023-04-05T01:46:32;100401.59;;;6.14;100.00
8575;BME280;4325;42.520;27.448;2023-04-05T01:48:59;100396.66;;;6.11;100.00
8575;BME280;4325;42.520;27.448;2023-04-05T01:51:26;100396.66;;;6.11;100.00
8575;BME280;4325;42.520;27.448;2023-04-05T01:53:53;100388.50;;;6.11;100.00
8575;BME280;4325;42.520;27.448;2023-04-05T01:56:20;100402.03;;;6.06;100.00
8575;BME280;4325;42.520;27.448;2023-04-05T01:58:47;100403.69;;;6.07;100.00
8575;BME280;4325;42.520;27.448;2023-04-05T02:01:13;100405.00;;;6.05;100.00
8575;BME280;4325;42.520;27.448;2023-04-05T02:03:42;100406.31;;;6.02;100.00
8575;BME280;4325;42.520;27.448;2023-04-05T02:06:08;100409.13;;;6.07;100.00
8575;BME280;4325;42.520;27.448;2023-04-05T02:08:35;100416.69;;;6.05;100.00
8575;BME280;4325;42.520;27.448;2023-04-05T02:11:02;100417.28;;;6.07;100.00
8575;BME280;4325;42.520;27.448;2023-04-05T02:13:29;100415.03;;;6.04;100.00
8575;BME280;4325;42.520;27.448;2023-04-05T02:15:56;100427.09;;;6.08;100.00
8575;BME280;4325;42.520;27.448;2023-04-05T02:18:22;100425.50;;;6.12;100.00
8575;BME280;4325;42.520;27.448;2023-04-05T02:21:01;100440.75;;;6.13;100.00
8575;BME280;4325;42.520;27.448;2023-04-05T02:23:29;100436.94;;;6.14;100.00
8575;BME280;4325;42.520;27.448;2023-04-05T02:25:57;100430.38;;;6.10;100.00
8575;BME280;4325;42.520;27.448;2023-04-05T02:28:23;100443.38;;;6.08;100.00
8575;BME280;4325;42.520;27.448;2023-04-05T02:30:50;100448.81;;;6.08;100.00
8575;BME280;4325;42.520;27.448;2023-04-05T02:33:17;100452.94;;;6.11;100.00
8575;BME280;4325;42.520;27.448;2023-04-05T02:35:47;100449.97;;;6.12;100.00
8575;BME280;4325;42.520;27.448;2023-04-05T02:38:15;100455.13;;;6.14;100.00
8575;BME280;4325;42.520;27.448;2023-04-05T02:40:42;100454.91;;;6.15;100.00
8575;BME280;4325;42.520;27.448;2023-04-05T02:43:11;100457.84;;;6.30;100.00
8575;BME280;4325;42.520;27.448;2023-04-05T02:45:38;100454.53;;;6.28;100.00
8575;BME280;4325;42.520;27.448;2023-04-05T02:48:05;100463.78;;;6.27;100.00
8575;BME280;4325;42.520;27.448;2023-04-05T02:50:32;100460.16;;;6.22;100.00
8575;BME280;4325;42.520;27.448;2023-04-05T02:52:59;100464.75;;;6.21;100.00
8575;BME280;4325;42.520;27.448;2023-04-05T02:55:27;100467.41;;;6.16;100.00
8575;BME280;4325;42.520;27.448;2023-04-05T02:57:57;100463.06;;;6.15;100.00
8575;BME280;4325;42.520;27.448;2023-04-05T03:00:25;100467.09;;;6.13;100.00
8575;BME280;4325;42.520;27.448;2023-04-05T03:02:52;100474.41;;;6.12;100.00
8575;BME280;4325;42.520;27.448;2023-04-05T03:05:19;100473.59;;;6.12;100.00
8575;BME280;4325;42.520;27.448;2023-04-05T03:07:47;100488.84;;;6.13;100.00
8575;BME280;4325;42.520;27.448;2023-04-05T03:10:15;100481.19;;;6.10;100.00
8575;BME280;4325;42.520;27.448;2023-04-05T03:12:44;100488.50;;;6.09;100.00
8575;BME280;4325;42.520;27.448;2023-04-05T03:15:11;100491.00;;;6.11;100.00
8575;BME280;4325;42.520;27.448;2023-04-05T03:17:38;100491.78;;;6.11;100.00
8575;BME280;4325;42.520;27.448;2023-04-05T03:20:10;100496.16;;;6.12;100.00
8575;BME280;4325;42.520;27.448;2023-04-05T03:22:37;100492.63;;;6.12;100.00
8575;BME280;4325;42.520;27.448;2023-04-05T03:25:04;100497.22;;;6.11;100.00
8575;BME280;4325;42.520;27.448;2023-04-05T03:27:31;100489.81;;;6.07;100.00
8575;BME280;4325;42.520;27.448;2023-04-05T03:30:00;100490.38;;;6.09;100.00
8575;BME280;4325;42.520;27.448;2023-04-05T03:32:26;100499.63;;;6.08;100.00
8575;BME280;4325;42.520;27.448;2023-04-05T03:34:53;100501.53;;;6.07;100.00
8575;BME280;4325;42.520;27.448;2023-04-05T03:37:20;100502.00;;;6.04;100.00
8575;BME280;4325;42.520;27.448;2023-04-05T03:39:47;100495.44;;;6.00;100.00
8575;BME280;4325;42.520;27.448;2023-04-05T03:42:14;100504.25;;;6.07;100.00
8575;BME280;4325;42.520;27.448;2023-04-05T03:44:42;100511.06;;;6.10;100.00
8575;BME280;4325;42.520;27.448;2023-04-05T03:47:10;100504.97;;;6.19;100.00
8575;BME280;4325;42.520;27.448;2023-04-05T03:49:37;100516.97;;;6.23;100.00
8575;BME280;4325;42.520;27.448;2023-04-05T03:52:04;100528.19;;;6.27;100.00
8575;BME280;4325;42.520;27.448;2023-04-05T03:54:31;100522.56;;;6.33;100.00
8575;BME280;4325;42.520;27.448;2023-04-05T03:56:58;100534.09;;;6.40;100.00
8575;BME280;4325;42.520;27.448;2023-04-05T03:59:25;100536.41;;;6.48;100.00
8575;BME280;4325;42.520;27.448;2023-04-05T04:01:52;100541.09;;;6.53;100.00
8575;BME280;4325;42.520;27.448;2023-04-05T04:04:20;100540.88;;;6.54;100.00
8575;BME280;4325;42.520;27.448;2023-04-05T04:06:47;100545.22;;;6.55;100.00
8575;BME280;4325;42.520;27.448;2023-04-05T04:09:14;100557.97;;;6.72;100.00
8575;BME280;4325;42.520;27.448;2023-04-05T04:11:41;100567.19;;;6.71;100.00
8575;BME280;4325;42.520;27.448;2023-04-05T04:14:08;100569.16;;;6.75;100.00
8575;BME280;4325;42.520;27.448;2023-04-05T04:16:34;100572.66;;;6.71;100.00
8575;BME280;4325;42.520;27.448;2023-04-05T04:19:01;100579.22;;;6.75;100.00
8575;BME280;4325;42.520;27.448;2023-04-05T04:21:29;100565.13;;;6.78;100.00
8575;BME280;4325;42.520;27.448;2023-04-05T04:23:57;100574.00;;;6.90;100.00
8575;BME280;4325;42.520;27.448;2023-04-05T04:26:25;100566.97;;;6.94;100.00
8575;BME280;4325;42.520;27.448;2023-04-05T04:28:53;100570.91;;;7.03;100.00
8575;BME280;4325;42.520;27.448;2023-04-05T04:31:20;100577.56;;;7.12;100.00
8575;BME280;4325;42.520;27.448;2023-04-05T04:33:48;100576.59;;;7.23;100.00
8575;BME280;4325;42.520;27.448;2023-04-05T04:36:16;100568.00;;;7.31;100.00
8575;BME280;4325;42.520;27.448;2023-04-05T04:38:53;100576.72;;;7.33;100.00
8575;BME280;4325;42.520;27.448;2023-04-05T04:41:20;100577.88;;;7.37;100.00
8575;BME280;4325;42.520;27.448;2023-04-05T04:43:47;100587.44;;;7.40;100.00
8575;BME280;4325;42.520;27.448;2023-04-05T04:46:13;100589.84;;;7.36;100.00
8575;BME280;4325;42.520;27.448;2023-04-05T04:48:40;100593.13;;;7.38;100.00
8575;BME280;4325;42.520;27.448;2023-04-05T04:51:07;100591.03;;;7.45;100.00
8575;BME280;4325;42.520;27.448;2023-04-05T04:53:34;100595.47;;;7.51;100.00
8575;BME280;4325;42.520;27.448;2023-04-05T04:56:06;100594.97;;;7.54;100.00
8575;BME280;4325;42.520;27.448;2023-04-05T04:58:33;100597.75;;;7.59;100.00
8575;BME280;4325;42.520;27.448;2023-04-05T05:01:00;100597.84;;;7.69;100.00
8575;BME280;4325;42.520;27.448;2023-04-05T05:03:33;100589.72;;;7.74;100.00
8575;BME280;4325;42.520;27.448;2023-04-05T05:06:01;100594.47;;;7.84;100.00
8575;BME280;4325;42.520;27.448;2023-04-05T05:08:27;100599.19;;;7.93;100.00
8575;BME280;4325;42.520;27.448;2023-04-05T05:10:54;100599.00;;;8.00;100.00
8575;BME280;4325;42.520;27.448;2023-04-05T05:13:23;100601.47;;;8.02;100.00
8575;BME280;4325;42.520;27.448;2023-04-05T05:15:49;100595.53;;;8.10;100.00
8575;BME280;4325;42.520;27.448;2023-04-05T05:18:17;100590.13;;;8.15;100.00
8575;BME280;4325;42.520;27.448;2023-04-05T05:20:44;100599.56;;;8.29;100.00
8575;BME280;4325;42.520;27.448;2023-04-05T05:23:11;100604.00;;;8.40;100.00
8575;BME280;4325;42.520;27.448;2023-04-05T05:25:38;100606.25;;;8.48;100.00
8575;BME280;4325;42.520;27.448;2023-04-05T05:28:05;100606.88;;;8.55;100.00
8575;BME280;4325;42.520;27.448;2023-04-05T05:30:33;100601.47;;;8.65;100.00
8575;BME280;4325;42.520;27.448;2023-04-05T05:33:00;100599.69;;;8.81;100.00
8575;BME280;4325;42.520;27.448;2023-04-05T05:35:28;100603.63;;;9.00;100.00
8575;BME280;4325;42.520;27.448;2023-04-05T05:37:54;100605.84;;;9.08;100.00
8575;BME280;4325;42.520;27.448;2023-04-05T05:40:21;100610.50;;;9.07;100.00
8575;BME280;4325;42.520;27.448;2023-04-05T05:42:50;100614.03;;;9.08;100.00
8575;BME280;4325;42.520;27.448;2023-04-05T05:45:17;100619.75;;;9.06;100.00
8575;BME280;4325;42.520;27.448;2023-04-05T05:47:45;100615.97;;;9.07;100.00
8575;BME280;4325;42.520;27.448;2023-04-05T05:50:12;100622.00;;;9.14;100.00
8575;BME280;4325;42.520;27.448;2023-04-05T05:52:41;100627.53;;;9.24;100.00
8575;BME280;4325;42.520;27.448;2023-04-05T05:55:08;100634.56;;;9.15;100.00
8575;BME280;4325;42.520;27.448;2023-04-05T05:57:35;100631.59;;;9.17;100.00
8575;BME280;4325;42.520;27.448;2023-04-05T06:00:04;100611.59;;;9.11;100.00
8575;BME280;4325;42.520;27.448;2023-04-05T06:02:33;100643.38;;;9.27;100.00
8575;BME280;4325;42.520;27.448;2023-04-05T06:05:02;100635.78;;;9.40;100.00
8575;BME280;4325;42.520;27.448;2023-04-05T06:07:29;100643.47;;;9.48;100.00
8575;BME280;4325;42.520;27.448;2023-04-05T06:09:56;100642.78;;;9.77;100.00
8575;BME280;4325;42.520;27.448;2023-04-05T06:12:23;100640.69;;;10.10;100.00
8575;BME280;4325;42.520;27.448;2023-04-05T06:14:49;100637.47;;;10.48;100.00
8575;BME280;4325;42.520;27.448;2023-04-05T06:17:16;100634.44;;;10.90;100.00
8575;BME280;4325;42.520;27.448;2023-04-05T06:19:43;100633.75;;;11.43;100.00
8575;BME280;4325;42.520;27.448;2023-04-05T06:22:11;100642.28;;;11.96;96.23
8575;BME280;4325;42.520;27.448;2023-04-05T06:24:38;100645.56;;;12.41;93.81
8575;BME280;4325;42.520;27.448;2023-04-05T06:27:05;100651.88;;;12.42;84.34
8575;BME280;4325;42.520;27.448;2023-04-05T06:29:32;100655.81;;;12.31;81.88
8575;BME280;4325;42.520;27.448;2023-04-05T06:31:59;100646.03;;;12.10;83.14
8575;BME280;4325;42.520;27.448;2023-04-05T06:34:26;100654.38;;;12.00;83.05
8575;BME280;4325;42.520;27.448;2023-04-05T06:36:52;100652.16;;;12.02;82.90
8575;BME280;4325;42.520;27.448;2023-04-05T06:39:21;100653.38;;;12.24;84.17
8575;BME280;4325;42.520;27.448;2023-04-05T06:41:48;100655.41;;;12.81;84.64
8575;BME280;4325;42.520;27.448;2023-04-05T06:44:15;100657.34;;;13.09;78.76
8575;BME280;4325;42.520;27.448;2023-04-05T06:46:42;100665.56;;;13.14;74.17
8575;BME280;4325;42.520;27.448;2023-04-05T06:49:09;100658.34;;;13.47;75.46
8575;BME280;4325;42.520;27.448;2023-04-05T06:51:35;100671.56;;;13.69;70.58
8575;BME280;4325;42.520;27.448;2023-04-05T06:54:02;100669.91;;;13.68;70.54
8575;BME280;4325;42.520;27.448;2023-04-05T06:56:31;100679.19;;;13.77;71.18
8575;BME280;4325;42.520;27.448;2023-04-05T06:58:58;100669.91;;;14.10;67.81
8575;BME280;4325;42.520;27.448;2023-04-05T07:01:26;100669.13;;;14.28;67.65
8575;BME280;4325;42.520;27.448;2023-04-05T07:03:53;100671.78;;;14.71;63.91
8575;BME280;4325;42.520;27.448;2023-04-05T07:06:20;100671.88;;;14.98;60.13
8575;BME280;4325;42.520;27.448;2023-04-05T07:08:48;100668.50;;;15.33;60.06
8575;BME280;4325;42.520;27.448;2023-04-05T07:11:15;100655.03;;;15.45;58.70
8575;BME280;4325;42.520;27.448;2023-04-05T07:13:43;100665.34;;;15.80;58.30
8575;BME280;4325;42.520;27.448;2023-04-05T07:16:10;100672.97;;;16.11;56.65
8575;BME280;4325;42.520;27.448;2023-04-05T07:18:37;100665.09;;;16.18;54.41
8575;BME280;4325;42.520;27.448;2023-04-05T07:21:04;100665.38;;;16.30;53.36
8575;BME280;4325;42.520;27.448;2023-04-05T07:23:31;100675.50;;;16.21;54.38
8575;BME280;4325;42.520;27.448;2023-04-05T07:26:01;100680.16;;;15.84;52.48
8575;BME280;4325;42.520;27.448;2023-04-05T07:28:30;100676.91;;;15.69;53.17
8575;BME280;4325;42.520;27.448;2023-04-05T07:30:59;100680.47;;;15.83;53.65
8575;BME280;4325;42.520;27.448;2023-04-05T07:33:26;100684.56;;;15.85;53.45
8575;BME280;4325;42.520;27.448;2023-04-05T07:35:53;100700.91;;;13.97;56.01
8575;BME280;4325;42.520;27.448;2023-04-05T07:38:21;100701.19;;;13.24;59.93
8575;BME280;4325;42.520;27.448;2023-04-05T07:40:48;100699.56;;;13.23;60.50
8575;BME280;4325;42.520;27.448;2023-04-05T07:43:15;100695.31;;;13.36;61.21
8575;BME280;4325;42.520;27.448;2023-04-05T07:45:42;100701.97;;;14.01;59.94
8575;BME280;4325;42.520;27.448;2023-04-05T07:48:10;100704.63;;;14.30;56.68
8575;BME280;4325;42.520;27.448;2023-04-05T07:50:37;100712.09;;;14.06;59.29
8575;BME280;4325;42.520;27.448;2023-04-05T07:53:05;100715.00;;;13.72;58.33
8575;BME280;4325;42.520;27.448;2023-04-05T07:55:32;100711.50;;;13.14;60.72
8575;BME280;4325;42.520;27.448;2023-04-05T07:57:59;100708.16;;;13.69;62.88
8575;BME280;4325;42.520;27.448;2023-04-05T08:00:26;100711.81;;;14.31;58.29
8575;BME280;4325;42.520;27.448;2023-04-05T08:02:53;100709.28;;;15.04;56.79
8575;BME280;4325;42.520;27.448;2023-04-05T08:05:21;100704.09;;;15.75;54.97
8575;BME280;4325;42.520;27.448;2023-04-05T08:07:48;100710.63;;;16.07;52.29
8575;BME280;4325;42.520;27.448;2023-04-05T08:10:15;100709.56;;;16.30;51.38
8575;BME280;4325;42.520;27.448;2023-04-05T08:12:42;100710.56;;;16.47;49.91
8575;BME280;4325;42.520;27.448;2023-04-05T08:15:09;100708.88;;;16.60;48.94
8575;BME280;4325;42.520;27.448;2023-04-05T08:17:36;100700.84;;;16.72;49.11
8575;BME280;4325;42.520;27.448;2023-04-05T08:20:04;100705.66;;;17.02;48.38
8575;BME280;4325;42.520;27.448;2023-04-05T08:22:33;100698.88;;;16.64;48.00
8575;BME280;4325;42.520;27.448;2023-04-05T08:25:00;100697.47;;;16.75;48.34
8575;BME280;4325;42.520;27.448;2023-04-05T08:27:26;100703.50;;;17.22;48.17
8575;BME280;4325;42.520;27.448;2023-04-05T08:29:53;100707.28;;;18.04;46.72
8575;BME280;4325;42.520;27.448;2023-04-05T08:32:21;100695.84;;;18.54;44.51
8575;BME280;4325;42.520;27.448;2023-04-05T08:34:47;100696.06;;;19.46;42.07
8575;BME280;4325;42.520;27.448;2023-04-05T08:37:14;100688.66;;;20.67;39.24
8575;BME280;4325;42.520;27.448;2023-04-05T08:39:42;100685.66;;;22.19;36.56
8575;BME280;4325;42.520;27.448;2023-04-05T08:42:15;100688.97;;;23.59;34.29
8575;BME280;4325;42.520;27.448;2023-04-05T08:44:43;100678.75;;;24.68;32.56
8575;BME280;4325;42.520;27.448;2023-04-05T08:47:11;100684.59;;;25.36;31.39
8575;BME280;4325;42.520;27.448;2023-04-05T08:49:42;100687.53;;;26.41;29.56
8575;BME280;4325;42.520;27.448;2023-04-05T08:52:09;100686.41;;;26.75;28.37
8575;BME280;4325;42.520;27.448;2023-04-05T08:54:37;100697.47;;;26.08;29.39
8575;BME280;4325;42.520;27.448;2023-04-05T08:57:06;100694.66;;;25.40;30.21
8575;BME280;4325;42.520;27.448;2023-04-05T08:59:36;100693.59;;;24.87;30.14
8575;BME280;4325;42.520;27.448;2023-04-05T09:02:11;100701.50;;;24.47;29.82
8575;BME280;4325;42.520;27.448;2023-04-05T09:04:42;100695.88;;;24.28;30.77
8575;BME280;4325;42.520;27.448;2023-04-05T09:07:11;100699.56;;;24.32;30.58
8575;BME280;4325;42.520;27.448;2023-04-05T09:09:41;100694.28;;;24.46;30.77
8575;BME280;4325;42.520;27.448;2023-04-05T09:12:11;100705.41;;;24.97;30.33
8575;BME280;4325;42.520;27.448;2023-04-05T09:14:38;100705.75;;;27.87;27.22
8575;BME280;4325;42.520;27.448;2023-04-05T09:17:05;100698.66;;;30.29;24.08
8575;BME280;4325;42.520;27.448;2023-04-05T09:19:32;100698.16;;;30.76;22.71
8575;BME280;4325;42.520;27.448;2023-04-05T09:22:00;100707.16;;;31.44;22.55
8575;BME280;4325;42.520;27.448;2023-04-05T09:24:32;100708.84;;;31.27;22.65
8575;BME280;4325;42.520;27.448;2023-04-05T09:27:03;100709.38;;;31.04;22.67
8575;BME280;4325;42.520;27.448;2023-04-05T09:29:32;100708.75;;;30.44;22.92
8575;BME280;4325;42.520;27.448;2023-04-05T09:32:00;100706.22;;;29.33;23.38
8575;BME280;4325;42.520;27.448;2023-04-05T09:34:28;100714.72;;;27.22;25.77
8575;BME280;4325;42.520;27.448;2023-04-05T09:36:56;100711.94;;;27.26;25.56
8575;BME280;4325;42.520;27.448;2023-04-05T09:39:27;100712.03;;;26.70;25.62
8575;BME280;4325;42.520;27.448;2023-04-05T09:42:05;100712.16;;;25.34;27.87
8575;BME280;4325;42.520;27.448;2023-04-05T09:44:50;100707.63;;;23.71;28.88
8575;BME280;4325;42.520;27.448;2023-04-05T09:47:19;100707.31;;;22.62;31.19
8575;BME280;4325;42.520;27.448;2023-04-05T09:49:46;100696.94;;;21.98;32.54
8575;BME280;4325;42.520;27.448;2023-04-05T09:52:17;100708.31;;;21.24;33.41
8575;BME280;4325;42.520;27.448;2023-04-05T09:54:45;100713.63;;;20.34;34.04
8575;BME280;4325;42.520;27.448;2023-04-05T09:57:12;100713.16;;;19.57;35.18
8575;BME280;4325;42.520;27.448;2023-04-05T09:59:39;100715.72;;;19.07;37.07
8575;BME280;4325;42.520;27.448;2023-04-05T10:02:09;100715.91;;;18.59;38.01
8575;BME280;4325;42.520;27.448;2023-04-05T10:04:40;100713.38;;;18.23;39.28
8575;BME280;4325;42.520;27.448;2023-04-05T10:07:08;100712.16;;;17.90;39.72
8575;BME280;4325;42.520;27.448;2023-04-05T10:09:36;100713.00;;;17.60;40.24
8575;BME280;4325;42.520;27.448;2023-04-05T10:12:04;100712.88;;;17.43;41.24
8575;BME280;4325;42.520;27.448;2023-04-05T10:14:32;100716.06;;;17.28;41.11
8575;BME280;4325;42.520;27.448;2023-04-05T10:17:06;100718.31;;;17.26;41.42
8575;BME280;4325;42.520;27.448;2023-04-05T10:19:44;100711.03;;;17.30;41.27
8575;BME280;4325;42.520;27.448;2023-04-05T10:22:21;100715.84;;;17.46;41.68
8575;BME280;4325;42.520;27.448;2023-04-05T10:24:53;100709.28;;;18.12;40.47
8575;BME280;4325;42.520;27.448;2023-04-05T10:27:24;100687.34;;;18.76;39.35
8575;BME280;4325;42.520;27.448;2023-04-05T10:30:02;100711.50;;;19.64;37.98
8575;BME280;4325;42.520;27.448;2023-04-05T10:32:37;100718.44;;;19.88;36.37
8575;BME280;4325;42.520;27.448;2023-04-05T10:35:09;100715.94;;;19.65;36.31
8575;BME280;4325;42.520;27.448;2023-04-05T10:37:47;100721.00;;;19.55;36.95
8575;BME280;4325;42.520;27.448;2023-04-05T10:40:19;100714.41;;;19.76;36.66
8575;BME280;4325;42.520;27.448;2023-04-05T10:42:47;100710.13;;;19.88;36.44
8575;BME280;4325;42.520;27.448;2023-04-05T10:45:17;100713.38;;;19.90;36.02
8575;BME280;4325;42.520;27.448;2023-04-05T10:47:49;100717.88;;;19.73;36.72
8575;BME280;4325;42.520;27.448;2023-04-05T10:50:21;100711.63;;;19.76;36.80
8575;BME280;4325;42.520;27.448;2023-04-05T10:52:50;100711.31;;;19.69;36.34
8575;BME280;4325;42.520;27.448;2023-04-05T10:55:17;100712.03;;;19.49;36.85
8575;BME280;4325;42.520;27.448;2023-04-05T10:57:45;100716.03;;;19.14;37.24
8575;BME280;4325;42.520;27.448;2023-04-05T11:00:14;100719.19;;;18.78;37.60
8575;BME280;4325;42.520;27.448;2023-04-05T11:02:42;100720.63;;;18.59;38.73
8575;BME280;4325;42.520;27.448;2023-04-05T11:05:32;100716.66;;;18.42;39.00
8575;BME280;4325;42.520;27.448;2023-04-05T11:08:03;100712.75;;;18.43;39.06
8575;BME280;4325;42.520;27.448;2023-04-05T11:10:31;100710.31;;;18.42;39.10
8575;BME280;4325;42.520;27.448;2023-04-05T11:13:07;100707.19;;;18.26;38.52
8575;BME280;4325;42.520;27.448;2023-04-05T11:15:35;100703.28;;;18.27;38.83
8575;BME280;4325;42.520;27.448;2023-04-05T11:18:07;100705.91;;;18.32;39.45
8575;BME280;4325;42.520;27.448;2023-04-05T11:20:43;100701.16;;;18.33;39.11
8575;BME280;4325;42.520;27.448;2023-04-05T11:23:12;100706.72;;;18.41;39.11
8575;BME280;4325;42.520;27.448;2023-04-05T11:25:45;100713.59;;;18.53;38.88
8575;BME280;4325;42.520;27.448;2023-04-05T11:28:22;100701.38;;;18.71;38.34
8575;BME280;4325;42.520;27.448;2023-04-05T11:30:49;100702.84;;;18.85;38.15
8575;BME280;4325;42.520;27.448;2023-04-05T11:33:53;100701.69;;;18.95;38.42
8575;BME280;4325;42.520;27.448;2023-04-05T11:36:32;100697.59;;;19.01;38.50
8575;BME280;4325;42.520;27.448;2023-04-05T11:39:27;100704.47;;;18.86;38.25
8575;BME280;4325;42.520;27.448;2023-04-05T11:42:02;100718.34;;;18.61;38.01
8575;BME280;4325;42.520;27.448;2023-04-05T11:44:38;100711.13;;;18.42;38.71
8575;BME280;4325;42.520;27.448;2023-04-05T11:47:05;100707.38;;;18.38;39.32
8575;BME280;4325;42.520;27.448;2023-04-05T11:49:32;100718.47;;;18.30;39.35
8575;BME280;4325;42.520;27.448;2023-04-05T11:52:09;100712.53;;;18.06;39.72
8575;BME280;4325;42.520;27.448;2023-04-05T11:54:36;100712.94;;;17.82;39.53
8575;BME280;4325;42.520;27.448;2023-04-05T11:57:04;100711.81;;;17.52;40.12
8575;BME280;4325;42.520;27.448;2023-04-05T11:59:32;100711.28;;;17.20;40.83
8575;BME280;4325;42.520;27.448;2023-04-05T12:02:03;100710.72;;;16.87;42.16
8575;BME280;4325;42.520;27.448;2023-04-05T12:04:32;100719.53;;;16.67;42.70
8575;BME280;4325;42.520;27.448;2023-04-05T12:07:17;100722.22;;;16.44;43.47
8575;BME280;4325;42.520;27.448;2023-04-05T12:10:11;100728.19;;;16.24;43.76
8575;BME280;4325;42.520;27.448;2023-04-05T12:12:41;100722.09;;;16.00;44.08
8575;BME280;4325;42.520;27.448;2023-04-05T12:15:09;100727.63;;;15.87;44.96
8575;BME280;4325;42.520;27.448;2023-04-05T12:17:39;100726.69;;;15.77;45.33
8575;BME280;4325;42.520;27.448;2023-04-05T12:20:08;100720.03;;;15.65;45.42
8575;BME280;4325;42.520;27.448;2023-04-05T12:22:37;100718.81;;;15.57;45.79
8575;BME280;4325;42.520;27.448;2023-04-05T12:25:05;100720.34;;;15.50;46.44
8575;BME280;4325;42.520;27.448;2023-04-05T12:27:32;100723.69;;;15.47;46.83
8575;BME280;4325;42.520;27.448;2023-04-05T12:30:10;100719.56;;;15.44;47.56
8575;BME280;4325;42.520;27.448;2023-04-05T12:32:41;100719.56;;;15.44;47.93
8575;BME280;4325;42.520;27.448;2023-04-05T12:35:11;100720.44;;;15.45;48.03
8575;BME280;4325;42.520;27.448;2023-04-05T12:37:40;100719.00;;;15.47;48.40
8575;BME280;4325;42.520;27.448;2023-04-05T12:40:08;100718.69;;;15.49;47.88
8575;BME280;4325;42.520;27.448;2023-04-05T12:42:36;100710.38;;;15.35;47.62
8575;BME280;4325;42.520;27.448;2023-04-05T12:45:04;100710.16;;;15.32;47.76
8575;BME280;4325;42.520;27.448;2023-04-05T12:47:33;100703.81;;;15.31;48.35
8575;BME280;4325;42.520;27.448;2023-04-05T12:50:13;100712.16;;;15.26;49.01
8575;BME280;4325;42.520;27.448;2023-04-05T12:52:52;100715.03;;;15.21;49.13
8575;BME280;4325;42.520;27.448;2023-04-05T12:55:19;100718.25;;;15.09;49.10
8575;BME280;4325;42.520;27.448;2023-04-05T12:57:53;100714.34;;;14.97;49.52
8575;BME280;4325;42.520;27.448;2023-04-05T13:00:21;100713.31;;;14.93;49.75
8575;BME280;4325;42.520;27.448;2023-04-05T13:02:51;100709.63;;;14.84;49.99
8575;BME280;4325;42.520;27.448;2023-04-05T13:05:20;100708.56;;;14.80;49.68
8575;BME280;4325;42.520;27.448;2023-04-05T13:07:47;100713.56;;;14.78;50.05
8575;BME280;4325;42.520;27.448;2023-04-05T13:10:15;100713.03;;;14.76;50.43
8575;BME280;4325;42.520;27.448;2023-04-05T13:12:42;100713.03;;;14.76;50.21